sensor_id;sensor_type;location;lat;lon;timestamp;temperature;humidity
21340;DHT22;10828;47.064;15.422;2023-08-20T00:00:11;23.30;99.90
21340;DHT22;10828;47.064;15.422;2023-08-20T00:02:38;23.40;99.90
21340;DHT22;10828;47.064;15.422;2023-08-20T00:05:05;23.40;99.90
21340;DHT22;10828;47.064;15.422;2023-08-20T00:07:31;23.30;99.90
21340;DHT22;10828;47.064;15.422;2023-08-20T00:09:57;23.30;99.90
21340;DHT22;10828;47.064;15.422;2023-08-20T00:12:23;23.40;99.90
21340;DHT22;10828;47.064;15.422;2023-08-20T00:15:03;23.40;99.90
21340;DHT22;10828;47.064;15.422;2023-08-20T00:17:38;23.40;99.90
21340;DHT22;10828;47.064;15.422;2023-08-20T00:20:07;23.50;99.90
21340;DHT22;10828;47.064;15.422;2023-08-20T00:22:40;23.60;99.90
21340;DHT22;10828;47.064;15.422;2023-08-20T00:25:07;23.80;99.90
21340;DHT22;10828;47.064;15.422;2023-08-20T00:27:33;23.90;99.90
21340;DHT22;10828;47.064;15.422;2023-08-20T00:30:07;23.90;99.90
21340;DHT22;10828;47.064;15.422;2023-08-20T00:32:33;24.00;99.90
21340;DHT22;10828;47.064;15.422;2023-08-20T00:34:59;23.90;99.90
21340;DHT22;10828;47.064;15.422;2023-08-20T00:37:37;23.80;99.90
21340;DHT22;10828;47.064;15.422;2023-08-20T00:40:03;23.60;99.90
21340;DHT22;10828;47.064;15.422;2023-08-20T00:42:30;23.60;99.90
21340;DHT22;10828;47.064;15.422;2023-08-20T00:44:56;23.50;99.90
21340;DHT22;10828;47.064;15.422;2023-08-20T00:47:28;23.50;99.90
21340;DHT22;10828;47.064;15.422;2023-08-20T00:49:54;23.60;99.90
21340;DHT22;10828;47.064;15.422;2023-08-20T00:52:20;23.60;99.90
21340;DHT22;10828;47.064;15.422;2023-08-20T00:54:47;23.60;99.90
21340;DHT22;10828;47.064;15.422;2023-08-20T00:57:14;23.70;99.90
21340;DHT22;10828;47.064;15.422;2023-08-20T00:59:41;23.80;99.90
21340;DHT22;10828;47.064;15.422;2023-08-20T01:02:08;23.70;99.90
21340;DHT22;10828;47.064;15.422;2023-08-20T01:04:44;23.70;99.90
21340;DHT22;10828;47.064;15.422;2023-08-20T01:13:02;23.50;99.90
21340;DHT22;10828;47.064;15.422;2023-08-20T01:15:29;23.50;99.90
21340;DHT22;10828;47.064;15.422;2023-08-20T01:17:55;23.60;99.90
21340;DHT22;10828;47.064;15.422;2023-08-20T01:20:25;23.60;99.90
21340;DHT22;10828;47.064;15.422;2023-08-20T01:28:29;23.60;99.90
21340;DHT22;10828;47.064;15.422;2023-08-20T01:30:59;23.70;99.90
21340;DHT22;10828;47.064;15.422;2023-08-20T01:33:26;23.80;99.90
21340;DHT22;10828;47.064;15.422;2023-08-20T01:35:52;23.90;99.90
21340;DHT22;10828;47.064;15.422;2023-08-20T01:38:18;23.90;99.90
21340;DHT22;10828;47.064;15.422;2023-08-20T01:40:44;23.90;99.90
21340;DHT22;10828;47.064;15.422;2023-08-20T01:43:09;23.90;99.90
21340;DHT22;10828;47.064;15.422;2023-08-20T01:45:55;23.90;99.90
21340;DHT22;10828;47.064;15.422;2023-08-20T01:48:20;23.90;99.90
21340;DHT22;10828;47.064;15.422;2023-08-20T01:50:52;23.90;99.90
21340;DHT22;10828;47.064;15.422;2023-08-20T01:53:18;23.80;99.90
21340;DHT22;10828;47.064;15.422;2023-08-20T01:55:43;23.70;99.90
21340;DHT22;10828;47.064;15.422;2023-08-20T01:58:09;23.60;99.90
21340;DHT22;10828;47.064;15.422;2023-08-20T02:00:34;23.50;99.90
21340;DHT22;10828;47.064;15.422;2023-08-20T02:03:00;23.40;99.90
21340;DHT22;10828;47.064;15.422;2023-08-20T02:05:26;23.30;99.90
21340;DHT22;10828;47.064;15.422;2023-08-20T02:07:51;23.30;99.90
21340;DHT22;10828;47.064;15.422;2023-08-20T02:10:17;23.20;99.90
21340;DHT22;10828;47.064;15.422;2023-08-20T02:12:42;23.20;99.90
21340;DHT22;10828;47.064;15.422;2023-08-20T02:15:14;23.20;99.90
21340;DHT22;10828;47.064;15.422;2023-08-20T02:17:40;23.20;99.90
21340;DHT22;10828;47.064;15.422;2023-08-20T02:20:06;23.10;99.90
21340;DHT22;10828;47.064;15.422;2023-08-20T02:22:35;23.00;99.90
21340;DHT22;10828;47.064;15.422;2023-08-20T02:25:01;23.00;99.90
21340;DHT22;10828;47.064;15.422;2023-08-20T02:27:26;23.00;99.90
21340;DHT22;10828;47.064;15.422;2023-08-20T02:29:52;23.00;99.90
21340;DHT22;10828;47.064;15.422;2023-08-20T02:32:18;23.00;99.90
21340;DHT22;10828;47.064;15.422;2023-08-20T02:34:44;22.90;99.90
21340;DHT22;10828;47.064;15.422;2023-08-20T02:37:09;22.90;99.90
21340;DHT22;10828;47.064;15.422;2023-08-20T02:39:35;22.90;99.90
21340;DHT22;10828;47.064;15.422;2023-08-20T02:42:01;22.90;99.90
21340;DHT22;10828;47.064;15.422;2023-08-20T02:44:26;22.90;99.90
21340;DHT22;10828;47.064;15.422;2023-08-20T02:46:52;22.90;99.90
21340;DHT22;10828;47.064;15.422;2023-08-20T02:49:17;22.90;99.90
21340;DHT22;10828;47.064;15.422;2023-08-20T02:51:43;22.90;99.90
21340;DHT22;10828;47.064;15.422;2023-08-20T02:54:09;23.00;99.90
21340;DHT22;10828;47.064;15.422;2023-08-20T02:56:35;22.90;99.90
21340;DHT22;10828;47.064;15.422;2023-08-20T02:59:00;22.90;99.90
21340;DHT22;10828;47.064;15.422;2023-08-20T03:01:26;22.90;99.90
21340;DHT22;10828;47.064;15.422;2023-08-20T03:03:52;22.90;99.90
21340;DHT22;10828;47.064;15.422;2023-08-20T03:06:17;22.90;99.90
21340;DHT22;10828;47.064;15.422;2023-08-20T03:08:43;22.90;99.90
21340;DHT22;10828;47.064;15.422;2023-08-20T03:11:08;22.90;99.90
21340;DHT22;10828;47.064;15.422;2023-08-20T03:13:34;22.90;99.90
21340;DHT22;10828;47.064;15.422;2023-08-20T03:16:00;22.80;99.90
21340;DHT22;10828;47.064;15.422;2023-08-20T03:18:35;22.80;99.90
21340;DHT22;10828;47.064;15.422;2023-08-20T03:21:00;22.80;99.90
21340;DHT22;10828;47.064;15.422;2023-08-20T03:23:29;22.70;99.90
21340;DHT22;10828;47.064;15.422;2023-08-20T03:25:57;22.70;99.90
21340;DHT22;10828;47.064;15.422;2023-08-20T03:28:24;22.60;99.90
21340;DHT22;10828;47.064;15.422;2023-08-20T03:30:49;22.70;99.90
21340;DHT22;10828;47.064;15.422;2023-08-20T03:33:15;22.70;99.90
21340;DHT22;10828;47.064;15.422;2023-08-20T03:35:42;22.70;99.90
21340;DHT22;10828;47.064;15.422;2023-08-20T03:38:08;22.60;99.90
21340;DHT22;10828;47.064;15.422;2023-08-20T03:40:33;22.50;99.90
21340;DHT22;10828;47.064;15.422;2023-08-20T03:42:59;22.50;99.90
21340;DHT22;10828;47.064;15.422;2023-08-20T03:45:25;22.40;99.90
21340;DHT22;10828;47.064;15.422;2023-08-20T03:47:51;22.40;99.90
21340;DHT22;10828;47.064;15.422;2023-08-20T03:50:16;22.30;99.90
21340;DHT22;10828;47.064;15.422;2023-08-20T03:52:42;22.20;99.90
21340;DHT22;10828;47.064;15.422;2023-08-20T03:55:08;22.20;99.90
21340;DHT22;10828;47.064;15.422;2023-08-20T03:57:33;22.20;99.90
21340;DHT22;10828;47.064;15.422;2023-08-20T03:59:59;22.20;99.90
21340;DHT22;10828;47.064;15.422;2023-08-20T04:02:24;22.20;99.90
21340;DHT22;10828;47.064;15.422;2023-08-20T04:04:50;22.10;99.90
21340;DHT22;10828;47.064;15.422;2023-08-20T04:07:15;22.10;99.90
21340;DHT22;10828;47.064;15.422;2023-08-20T04:09:41;22.20;99.90
21340;DHT22;10828;47.064;15.422;2023-08-20T04:12:08;22.20;99.90
21340;DHT22;10828;47.064;15.422;2023-08-20T04:14:33;22.20;99.90
21340;DHT22;10828;47.064;15.422;2023-08-20T04:16:59;22.10;99.90
21340;DHT22;10828;47.064;15.422;2023-08-20T04:19:25;22.10;99.90
21340;DHT22;10828;47.064;15.422;2023-08-20T04:21:55;22.10;99.90
21340;DHT22;10828;47.064;15.422;2023-08-20T04:24:21;22.00;99.90
21340;DHT22;10828;47.064;15.422;2023-08-20T04:26:47;22.10;99.90
21340;DHT22;10828;47.064;15.422;2023-08-20T04:29:12;22.10;99.90
21340;DHT22;10828;47.064;15.422;2023-08-20T04:31:38;22.10;99.90
21340;DHT22;10828;47.064;15.422;2023-08-20T04:34:03;22.10;99.90
21340;DHT22;10828;47.064;15.422;2023-08-20T04:36:29;22.10;99.90
21340;DHT22;10828;47.064;15.422;2023-08-20T04:38:54;22.10;99.90
21340;DHT22;10828;47.064;15.422;2023-08-20T04:41:20;22.10;99.90
21340;DHT22;10828;47.064;15.422;2023-08-20T04:43:45;22.20;99.90
21340;DHT22;10828;47.064;15.422;2023-08-20T04:46:12;22.20;99.90
21340;DHT22;10828;47.064;15.422;2023-08-20T04:48:38;22.20;99.90
21340;DHT22;10828;47.064;15.422;2023-08-20T04:51:05;22.20;99.90
21340;DHT22;10828;47.064;15.422;2023-08-20T04:53:31;22.20;99.90
21340;DHT22;10828;47.064;15.422;2023-08-20T04:55:57;22.30;99.90
21340;DHT22;10828;47.064;15.422;2023-08-20T04:58:23;22.20;99.90
21340;DHT22;10828;47.064;15.422;2023-08-20T05:00:48;22.20;99.90
21340;DHT22;10828;47.064;15.422;2023-08-20T05:03:14;22.10;99.90
21340;DHT22;10828;47.064;15.422;2023-08-20T05:05:39;22.10;99.90
21340;DHT22;10828;47.064;15.422;2023-08-20T05:08:06;22.10;99.90
21340;DHT22;10828;47.064;15.422;2023-08-20T05:10:35;22.10;99.90
21340;DHT22;10828;47.064;15.422;2023-08-20T05:13:01;22.00;99.90
21340;DHT22;10828;47.064;15.422;2023-08-20T05:15:27;22.10;99.90
21340;DHT22;10828;47.064;15.422;2023-08-20T05:17:52;22.00;99.90
21340;DHT22;10828;47.064;15.422;2023-08-20T05:20:36;22.00;99.90
21340;DHT22;10828;47.064;15.422;2023-08-20T05:23:02;22.10;99.90
21340;DHT22;10828;47.064;15.422;2023-08-20T05:25:29;22.20;99.90
21340;DHT22;10828;47.064;15.422;2023-08-20T05:27:54;22.20;99.90
21340;DHT22;10828;47.064;15.422;2023-08-20T05:30:20;22.20;99.90
21340;DHT22;10828;47.064;15.422;2023-08-20T05:32:46;22.30;99.90
21340;DHT22;10828;47.064;15.422;2023-08-20T05:35:12;22.30;99.90
21340;DHT22;10828;47.064;15.422;2023-08-20T05:37:38;22.40;99.90
21340;DHT22;10828;47.064;15.422;2023-08-20T05:40:04;22.50;99.90
21340;DHT22;10828;47.064;15.422;2023-08-20T05:42:33;22.60;99.90
21340;DHT22;10828;47.064;15.422;2023-08-20T05:44:58;22.70;99.90
21340;DHT22;10828;47.064;15.422;2023-08-20T05:47:24;22.70;99.90
21340;DHT22;10828;47.064;15.422;2023-08-20T05:49:49;22.80;99.90
21340;DHT22;10828;47.064;15.422;2023-08-20T05:52:15;22.90;99.90
21340;DHT22;10828;47.064;15.422;2023-08-20T05:54:41;22.90;99.90
21340;DHT22;10828;47.064;15.422;2023-08-20T05:57:07;23.10;99.90
21340;DHT22;10828;47.064;15.422;2023-08-20T05:59:33;23.20;99.90
21340;DHT22;10828;47.064;15.422;2023-08-20T06:02:00;23.20;99.90
21340;DHT22;10828;47.064;15.422;2023-08-20T06:04:26;23.20;99.90
21340;DHT22;10828;47.064;15.422;2023-08-20T06:06:52;23.30;99.90
21340;DHT22;10828;47.064;15.422;2023-08-20T06:09:17;23.30;99.90
21340;DHT22;10828;47.064;15.422;2023-08-20T06:11:44;23.30;99.90
21340;DHT22;10828;47.064;15.422;2023-08-20T06:14:09;23.30;99.90
21340;DHT22;10828;47.064;15.422;2023-08-20T06:16:36;23.30;99.90
21340;DHT22;10828;47.064;15.422;2023-08-20T06:19:02;23.40;99.90
21340;DHT22;10828;47.064;15.422;2023-08-20T06:21:28;23.40;99.90
21340;DHT22;10828;47.064;15.422;2023-08-20T06:23:53;23.50;99.90
21340;DHT22;10828;47.064;15.422;2023-08-20T06:26:19;23.50;99.90
21340;DHT22;10828;47.064;15.422;2023-08-20T06:28:46;23.50;99.90
21340;DHT22;10828;47.064;15.422;2023-08-20T06:31:11;23.60;99.90
21340;DHT22;10828;47.064;15.422;2023-08-20T06:33:37;23.60;99.90
21340;DHT22;10828;47.064;15.422;2023-08-20T06:36:03;23.70;99.90
21340;DHT22;10828;47.064;15.422;2023-08-20T06:38:29;23.70;99.90
21340;DHT22;10828;47.064;15.422;2023-08-20T06:40:56;23.80;99.90
21340;DHT22;10828;47.064;15.422;2023-08-20T06:43:22;23.80;99.90
21340;DHT22;10828;47.064;15.422;2023-08-20T06:45:47;23.90;99.90
21340;DHT22;10828;47.064;15.422;2023-08-20T06:48:13;24.00;99.90
21340;DHT22;10828;47.064;15.422;2023-08-20T06:50:40;24.00;99.90
21340;DHT22;10828;47.064;15.422;2023-08-20T06:53:06;24.00;99.90
21340;DHT22;10828;47.064;15.422;2023-08-20T06:55:32;24.10;99.90
21340;DHT22;10828;47.064;15.422;2023-08-20T06:57:57;24.20;99.90
21340;DHT22;10828;47.064;15.422;2023-08-20T07:00:23;24.20;99.90
21340;DHT22;10828;47.064;15.422;2023-08-20T07:02:48;24.30;99.90
21340;DHT22;10828;47.064;15.422;2023-08-20T07:05:14;24.40;99.90
21340;DHT22;10828;47.064;15.422;2023-08-20T07:07:40;24.50;99.90
21340;DHT22;10828;47.064;15.422;2023-08-20T07:10:06;24.50;99.90
21340;DHT22;10828;47.064;15.422;2023-08-20T07:12:31;24.60;99.90
21340;DHT22;10828;47.064;15.422;2023-08-20T07:14:57;24.60;99.90
21340;DHT22;10828;47.064;15.422;2023-08-20T07:17:23;24.80;99.90
21340;DHT22;10828;47.064;15.422;2023-08-20T07:19:48;24.80;99.90
21340;DHT22;10828;47.064;15.422;2023-08-20T07:22:14;24.90;99.90
21340;DHT22;10828;47.064;15.422;2023-08-20T07:24:39;25.00;99.90
21340;DHT22;10828;47.064;15.422;2023-08-20T07:27:05;25.10;99.90
21340;DHT22;10828;47.064;15.422;2023-08-20T07:29:36;25.10;99.90
21340;DHT22;10828;47.064;15.422;2023-08-20T07:32:03;25.10;99.90
21340;DHT22;10828;47.064;15.422;2023-08-20T07:34:29;25.10;99.90
21340;DHT22;10828;47.064;15.422;2023-08-20T07:37:00;25.20;99.90
21340;DHT22;10828;47.064;15.422;2023-08-20T07:39:27;25.20;99.90
21340;DHT22;10828;47.064;15.422;2023-08-20T07:42:00;25.40;99.90
21340;DHT22;10828;47.064;15.422;2023-08-20T07:44:28;25.40;99.90
21340;DHT22;10828;47.064;15.422;2023-08-20T07:46:54;25.50;99.90
21340;DHT22;10828;47.064;15.422;2023-08-20T07:49:19;25.60;99.90
21340;DHT22;10828;47.064;15.422;2023-08-20T07:51:45;25.50;99.90
21340;DHT22;10828;47.064;15.422;2023-08-20T07:54:10;25.50;99.90
21340;DHT22;10828;47.064;15.422;2023-08-20T07:56:37;25.60;99.90
21340;DHT22;10828;47.064;15.422;2023-08-20T07:59:03;25.60;99.90
21340;DHT22;10828;47.064;15.422;2023-08-20T08:01:30;25.70;99.90
21340;DHT22;10828;47.064;15.422;2023-08-20T08:03:56;25.70;99.90
21340;DHT22;10828;47.064;15.422;2023-08-20T08:06:22;25.80;99.90
21340;DHT22;10828;47.064;15.422;2023-08-20T08:08:49;25.80;99.90
21340;DHT22;10828;47.064;15.422;2023-08-20T08:11:14;25.90;99.90
21340;DHT22;10828;47.064;15.422;2023-08-20T08:13:41;26.00;99.90
21340;DHT22;10828;47.064;15.422;2023-08-20T08:16:12;26.00;99.90
21340;DHT22;10828;47.064;15.422;2023-08-20T08:18:38;26.00;99.90
21340;DHT22;10828;47.064;15.422;2023-08-20T08:21:12;26.10;99.90
21340;DHT22;10828;47.064;15.422;2023-08-20T08:23:37;26.10;99.90
21340;DHT22;10828;47.064;15.422;2023-08-20T08:26:03;26.20;99.90
21340;DHT22;10828;47.064;15.422;2023-08-20T08:28:28;26.30;99.90
21340;DHT22;10828;47.064;15.422;2023-08-20T08:30:54;26.30;99.90
21340;DHT22;10828;47.064;15.422;2023-08-20T08:33:19;26.50;99.90
21340;DHT22;10828;47.064;15.422;2023-08-20T08:35:45;26.60;99.90
21340;DHT22;10828;47.064;15.422;2023-08-20T08:38:11;26.70;99.90
21340;DHT22;10828;47.064;15.422;2023-08-20T08:40:37;26.70;99.90
21340;DHT22;10828;47.064;15.422;2023-08-20T08:43:04;26.90;99.90
21340;DHT22;10828;47.064;15.422;2023-08-20T08:45:29;26.90;99.90
21340;DHT22;10828;47.064;15.422;2023-08-20T08:47:55;26.90;99.90
21340;DHT22;10828;47.064;15.422;2023-08-20T08:50:21;27.00;99.90
21340;DHT22;10828;47.064;15.422;2023-08-20T08:52:53;27.00;99.90
21340;DHT22;10828;47.064;15.422;2023-08-20T08:55:19;27.00;99.90
21340;DHT22;10828;47.064;15.422;2023-08-20T08:57:44;27.10;99.90
21340;DHT22;10828;47.064;15.422;2023-08-20T09:00:10;27.20;99.90
21340;DHT22;10828;47.064;15.422;2023-08-20T09:02:36;27.30;99.90
21340;DHT22;10828;47.064;15.422;2023-08-20T09:05:02;27.30;99.90
21340;DHT22;10828;47.064;15.422;2023-08-20T09:07:27;27.30;99.90
21340;DHT22;10828;47.064;15.422;2023-08-20T09:09:58;27.40;99.90
21340;DHT22;10828;47.064;15.422;2023-08-20T09:12:25;27.60;99.90
21340;DHT22;10828;47.064;15.422;2023-08-20T09:14:51;27.80;99.90
21340;DHT22;10828;47.064;15.422;2023-08-20T09:17:19;28.00;99.90
21340;DHT22;10828;47.064;15.422;2023-08-20T09:19:46;28.10;99.90
21340;DHT22;10828;47.064;15.422;2023-08-20T09:22:12;28.20;99.90
21340;DHT22;10828;47.064;15.422;2023-08-20T09:24:46;28.40;99.90
21340;DHT22;10828;47.064;15.422;2023-08-20T09:27:12;28.50;99.90
21340;DHT22;10828;47.064;15.422;2023-08-20T09:32:23;28.80;99.90
21340;DHT22;10828;47.064;15.422;2023-08-20T09:34:50;28.90;99.90
21340;DHT22;10828;47.064;15.422;2023-08-20T09:37:16;28.90;99.90
21340;DHT22;10828;47.064;15.422;2023-08-20T09:39:43;29.10;99.90
21340;DHT22;10828;47.064;15.422;2023-08-20T09:42:10;29.20;99.90
21340;DHT22;10828;47.064;15.422;2023-08-20T09:44:38;29.40;99.90
21340;DHT22;10828;47.064;15.422;2023-08-20T09:47:07;29.70;99.90
21340;DHT22;10828;47.064;15.422;2023-08-20T09:49:41;29.90;99.90
21340;DHT22;10828;47.064;15.422;2023-08-20T09:52:08;30.10;99.90
21340;DHT22;10828;47.064;15.422;2023-08-20T09:57:19;30.60;99.90
21340;DHT22;10828;47.064;15.422;2023-08-20T09:59:47;30.70;99.90
21340;DHT22;10828;47.064;15.422;2023-08-20T10:02:15;31.00;99.90
21340;DHT22;10828;47.064;15.422;2023-08-20T10:04:47;31.20;99.90
21340;DHT22;10828;47.064;15.422;2023-08-20T10:07:14;31.30;99.90
21340;DHT22;10828;47.064;15.422;2023-08-20T10:09:40;31.10;99.90
21340;DHT22;10828;47.064;15.422;2023-08-20T10:12:07;30.80;99.90
21340;DHT22;10828;47.064;15.422;2023-08-20T10:14:33;30.50;99.90
21340;DHT22;10828;47.064;15.422;2023-08-20T10:16:58;30.30;99.90
21340;DHT22;10828;47.064;15.422;2023-08-20T10:19:25;30.50;99.90
21340;DHT22;10828;47.064;15.422;2023-08-20T10:21:54;30.70;99.90
21340;DHT22;10828;47.064;15.422;2023-08-20T10:24:23;30.90;99.90
21340;DHT22;10828;47.064;15.422;2023-08-20T10:27:10;31.20;99.90
21340;DHT22;10828;47.064;15.422;2023-08-20T10:29:40;31.20;99.90
21340;DHT22;10828;47.064;15.422;2023-08-20T10:32:15;31.00;99.90
21340;DHT22;10828;47.064;15.422;2023-08-20T10:34:44;31.10;99.90
21340;DHT22;10828;47.064;15.422;2023-08-20T10:37:15;30.90;99.90
21340;DHT22;10828;47.064;15.422;2023-08-20T10:39:53;30.90;99.90
21340;DHT22;10828;47.064;15.422;2023-08-20T10:45:29;31.60;99.90
21340;DHT22;10828;47.064;15.422;2023-08-20T10:47:51;31.90;99.90
21340;DHT22;10828;47.064;15.422;2023-08-20T10:50:18;32.20;99.90
21340;DHT22;10828;47.064;15.422;2023-08-20T10:52:55;32.50;99.90
21340;DHT22;10828;47.064;15.422;2023-08-20T10:55:24;32.40;99.90
21340;DHT22;10828;47.064;15.422;2023-08-20T10:57:57;32.40;99.90
21340;DHT22;10828;47.064;15.422;2023-08-20T11:00:24;32.40;99.90
21340;DHT22;10828;47.064;15.422;2023-08-20T11:02:51;32.10;99.90
21340;DHT22;10828;47.064;15.422;2023-08-20T11:05:18;32.10;99.90
21340;DHT22;10828;47.064;15.422;2023-08-20T11:07:46;32.10;99.90
21340;DHT22;10828;47.064;15.422;2023-08-20T11:10:15;32.30;99.90
21340;DHT22;10828;47.064;15.422;2023-08-20T11:12:41;32.40;99.90
21340;DHT22;10828;47.064;15.422;2023-08-20T11:15:09;32.20;99.90
21340;DHT22;10828;47.064;15.422;2023-08-20T11:17:35;32.20;99.90
21340;DHT22;10828;47.064;15.422;2023-08-20T11:20:01;32.30;99.90
21340;DHT22;10828;47.064;15.422;2023-08-20T11:22:27;32.00;99.90
21340;DHT22;10828;47.064;15.422;2023-08-20T11:24:52;31.90;99.90
21340;DHT22;10828;47.064;15.422;2023-08-20T11:27:18;32.10;99.90
21340;DHT22;10828;47.064;15.422;2023-08-20T11:29:44;32.20;99.90
21340;DHT22;10828;47.064;15.422;2023-08-20T11:32:10;32.10;99.90
21340;DHT22;10828;47.064;15.422;2023-08-20T11:34:36;32.10;99.90
21340;DHT22;10828;47.064;15.422;2023-08-20T11:37:04;32.40;99.90
21340;DHT22;10828;47.064;15.422;2023-08-20T11:39:30;32.50;99.90
21340;DHT22;10828;47.064;15.422;2023-08-20T11:41:55;32.10;99.90
21340;DHT22;10828;47.064;15.422;2023-08-20T11:44:22;32.20;99.90
21340;DHT22;10828;47.064;15.422;2023-08-20T11:46:48;32.50;99.90
21340;DHT22;10828;47.064;15.422;2023-08-20T11:49:14;32.30;99.90
21340;DHT22;10828;47.064;15.422;2023-08-20T11:51:49;32.30;99.90
21340;DHT22;10828;47.064;15.422;2023-08-20T11:54:16;32.20;99.90
21340;DHT22;10828;47.064;15.422;2023-08-20T11:56:49;32.10;99.90
21340;DHT22;10828;47.064;15.422;2023-08-20T11:59:17;32.30;99.90
21340;DHT22;10828;47.064;15.422;2023-08-20T12:01:43;32.30;99.90
21340;DHT22;10828;47.064;15.422;2023-08-20T12:04:09;32.40;99.90
21340;DHT22;10828;47.064;15.422;2023-08-20T12:06:36;32.60;99.90
21340;DHT22;10828;47.064;15.422;2023-08-20T12:09:18;32.40;99.90
21340;DHT22;10828;47.064;15.422;2023-08-20T12:11:52;32.30;99.90
21340;DHT22;10828;47.064;15.422;2023-08-20T12:14:20;32.50;99.90
21340;DHT22;10828;47.064;15.422;2023-08-20T12:16:46;32.90;99.90
21340;DHT22;10828;47.064;15.422;2023-08-20T12:19:12;33.10;99.90
21340;DHT22;10828;47.064;15.422;2023-08-20T12:21:39;33.30;99.90
21340;DHT22;10828;47.064;15.422;2023-08-20T12:24:06;33.60;99.90
21340;DHT22;10828;47.064;15.422;2023-08-20T12:26:32;33.60;99.90
21340;DHT22;10828;47.064;15.422;2023-08-20T12:28:57;33.70;99.90
21340;DHT22;10828;47.064;15.422;2023-08-20T12:31:23;33.60;99.90
21340;DHT22;10828;47.064;15.422;2023-08-20T12:33:48;33.40;99.90
21340;DHT22;10828;47.064;15.422;2023-08-20T12:36:14;33.30;99.90
21340;DHT22;10828;47.064;15.422;2023-08-20T12:38:39;33.10;99.90
21340;DHT22;10828;47.064;15.422;2023-08-20T12:41:06;33.10;99.90
21340;DHT22;10828;47.064;15.422;2023-08-20T12:43:32;33.10;99.90
21340;DHT22;10828;47.064;15.422;2023-08-20T12:45:58;32.80;99.90
21340;DHT22;10828;47.064;15.422;2023-08-20T12:48:23;32.70;99.90
21340;DHT22;10828;47.064;15.422;2023-08-20T12:50:49;32.90;99.90
21340;DHT22;10828;47.064;15.422;2023-08-20T12:53:15;33.10;99.90
21340;DHT22;10828;47.064;15.422;2023-08-20T12:55:40;33.50;99.90
21340;DHT22;10828;47.064;15.422;2023-08-20T12:58:06;33.60;99.90
21340;DHT22;10828;47.064;15.422;2023-08-20T13:00:32;33.60;99.90
21340;DHT22;10828;47.064;15.422;2023-08-20T13:02:59;33.70;99.90
21340;DHT22;10828;47.064;15.422;2023-08-20T13:05:25;33.70;99.90
21340;DHT22;10828;47.064;15.422;2023-08-20T13:07:53;33.80;99.90
21340;DHT22;10828;47.064;15.422;2023-08-20T13:10:19;33.70;99.90
21340;DHT22;10828;47.064;15.422;2023-08-20T13:12:48;33.50;99.90
21340;DHT22;10828;47.064;15.422;2023-08-20T13:15:18;33.40;99.90
21340;DHT22;10828;47.064;15.422;2023-08-20T13:17:46;33.40;99.90
21340;DHT22;10828;47.064;15.422;2023-08-20T13:20:12;33.50;99.90
21340;DHT22;10828;47.064;15.422;2023-08-20T13:22:37;33.40;99.90
21340;DHT22;10828;47.064;15.422;2023-08-20T13:25:04;33.40;99.90
21340;DHT22;10828;47.064;15.422;2023-08-20T13:27:30;33.40;99.90
21340;DHT22;10828;47.064;15.422;2023-08-20T13:29:56;33.30;99.90
21340;DHT22;10828;47.064;15.422;2023-08-20T13:32:22;33.30;99.90
21340;DHT22;10828;47.064;15.422;2023-08-20T13:34:49;33.50;99.90
21340;DHT22;10828;47.064;15.422;2023-08-20T13:37:15;33.50;99.90
21340;DHT22;10828;47.064;15.422;2023-08-20T13:39:41;33.40;99.90
21340;DHT22;10828;47.064;15.422;2023-08-20T13:42:07;33.20;99.90
21340;DHT22;10828;47.064;15.422;2023-08-20T13:44:33;33.00;99.90
21340;DHT22;10828;47.064;15.422;2023-08-20T13:46:59;32.90;99.90
21340;DHT22;10828;47.064;15.422;2023-08-20T13:49:25;32.70;99.90
21340;DHT22;10828;47.064;15.422;2023-08-20T13:51:51;32.50;99.90
21340;DHT22;10828;47.064;15.422;2023-08-20T13:54:17;32.30;99.90
21340;DHT22;10828;47.064;15.422;2023-08-20T13:56:43;32.40;99.90
21340;DHT22;10828;47.064;15.422;2023-08-20T13:59:12;32.30;99.90
21340;DHT22;10828;47.064;15.422;2023-08-20T14:01:38;32.40;99.90
21340;DHT22;10828;47.064;15.422;2023-08-20T14:04:04;32.50;99.90
21340;DHT22;10828;47.064;15.422;2023-08-20T14:06:30;32.60;99.90
21340;DHT22;10828;47.064;15.422;2023-08-20T14:08:56;32.60;99.90
21340;DHT22;10828;47.064;15.422;2023-08-20T14:11:23;32.80;99.90
21340;DHT22;10828;47.064;15.422;2023-08-20T14:13:49;32.90;99.90
21340;DHT22;10828;47.064;15.422;2023-08-20T14:16:15;32.90;99.90
21340;DHT22;10828;47.064;15.422;2023-08-20T14:18:41;33.00;99.90
21340;DHT22;10828;47.064;15.422;2023-08-20T14:21:07;32.80;99.90
21340;DHT22;10828;47.064;15.422;2023-08-20T14:23:33;32.80;99.90
21340;DHT22;10828;47.064;15.422;2023-08-20T14:26:01;32.80;99.90
21340;DHT22;10828;47.064;15.422;2023-08-20T14:28:27;32.90;99.90
21340;DHT22;10828;47.064;15.422;2023-08-20T14:30:52;32.90;99.90
21340;DHT22;10828;47.064;15.422;2023-08-20T14:33:20;32.80;99.90
21340;DHT22;10828;47.064;15.422;2023-08-20T14:35:46;32.40;99.90
21340;DHT22;10828;47.064;15.422;2023-08-20T14:38:14;32.20;99.90
21340;DHT22;10828;47.064;15.422;2023-08-20T14:40:42;32.00;99.90
21340;DHT22;10828;47.064;15.422;2023-08-20T14:43:08;31.80;99.90
21340;DHT22;10828;47.064;15.422;2023-08-20T14:45:34;31.70;99.90
21340;DHT22;10828;47.064;15.422;2023-08-20T14:48:00;31.60;99.90
21340;DHT22;10828;47.064;15.422;2023-08-20T14:50:26;31.50;99.90
21340;DHT22;10828;47.064;15.422;2023-08-20T14:52:51;31.60;99.90
21340;DHT22;10828;47.064;15.422;2023-08-20T14:55:18;31.60;99.90
21340;DHT22;10828;47.064;15.422;2023-08-20T14:57:45;31.60;99.90
21340;DHT22;10828;47.064;15.422;2023-08-20T15:00:11;31.60;99.90
21340;DHT22;10828;47.064;15.422;2023-08-20T15:02:41;31.70;99.90
21340;DHT22;10828;47.064;15.422;2023-08-20T15:05:07;31.90;99.90
21340;DHT22;10828;47.064;15.422;2023-08-20T15:07:33;32.10;99.90
21340;DHT22;10828;47.064;15.422;2023-08-20T15:09:58;32.20;99.90
21340;DHT22;10828;47.064;15.422;2023-08-20T15:12:24;32.30;99.90
21340;DHT22;10828;47.064;15.422;2023-08-20T15:14:50;32.40;99.90
21340;DHT22;10828;47.064;15.422;2023-08-20T15:17:17;32.30;99.90
21340;DHT22;10828;47.064;15.422;2023-08-20T15:19:43;32.30;99.90
21340;DHT22;10828;47.064;15.422;2023-08-20T15:22:10;32.20;99.90
21340;DHT22;10828;47.064;15.422;2023-08-20T15:24:36;32.10;99.90
21340;DHT22;10828;47.064;15.422;2023-08-20T15:27:02;32.00;99.90
21340;DHT22;10828;47.064;15.422;2023-08-20T15:29:29;32.10;99.90
21340;DHT22;10828;47.064;15.422;2023-08-20T15:31:55;32.10;99.90